createdAt,value
2022-08-08T00:01:22.136Z,37.85
2022-08-08T00:04:19.382Z,38.57
2022-08-08T00:06:58.609Z,38.97
2022-08-08T00:09:44.655Z,38.73
2022-08-08T00:12:23.720Z,38.82
2022-08-08T00:15:03.212Z,39.00
2022-08-08T00:18:01.643Z,39.20
2022-08-08T00:20:37.188Z,39.04
2022-08-08T00:23:08.523Z,39.15
2022-08-08T00:25:46.390Z,39.29
2022-08-08T00:28:34.995Z,38.97
2022-08-08T00:32:28.491Z,39.32
2022-08-08T00:34:36.888Z,40.83
2022-08-08T00:37:45.294Z,41.42
2022-08-08T00:41:08.977Z,42.30
2022-08-08T00:43:46.048Z,42.61
2022-08-08T00:47:14.132Z,42.95
2022-08-08T00:50:53.421Z,43.74
2022-08-08T00:53:57.301Z,43.69
2022-08-08T00:57:19.659Z,45.76
2022-08-08T01:00:14.374Z,45.91
2022-08-08T01:04:02.188Z,46.83
2022-08-08T01:07:08.686Z,47.73
2022-08-08T01:10:44.394Z,47.44
2022-08-08T01:13:58.381Z,47.61
2022-08-08T01:16:59.156Z,48.38
2022-08-08T01:20:03.929Z,51.58
2022-08-08T01:23:06.953Z,52.84
2022-08-08T01:26:28.461Z,55.37
2022-08-08T01:29:59.864Z,55.41
2022-08-08T01:33:27.880Z,53.04
2022-08-08T01:36:41.935Z,51.81
2022-08-08T01:39:28.452Z,49.97
2022-08-08T01:42:15.027Z,49.98
2022-08-08T01:45:03.386Z,52.59
2022-08-08T01:48:16.917Z,53.67
2022-08-08T01:50:53.284Z,54.81
2022-08-08T01:55:16.306Z,55.45
2022-08-08T01:56:52.714Z,55.01
2022-08-08T02:00:01.091Z,54.07
2022-08-08T02:02:57.136Z,53.29
2022-08-08T02:05:56.551Z,53.94
2022-08-08T02:08:45.578Z,54.52
2022-08-08T02:11:53.423Z,57.12
2022-08-08T02:14:29.594Z,58.37
2022-08-08T02:17:04.271Z,58.33
2022-08-08T02:20:07.326Z,58.99
2022-08-08T02:22:52.607Z,58.28
2022-08-08T02:25:43.714Z,57.75
2022-08-08T02:28:34.735Z,59.68
2022-08-08T02:31:43.527Z,61.86
2022-08-08T02:34:09.821Z,63.81
2022-08-08T02:36:58.504Z,65.23
2022-08-08T02:39:58.420Z,67.40
2022-08-08T02:44:34.731Z,69.32
2022-08-08T02:46:00.726Z,69.22
2022-08-08T02:48:55.222Z,70.45
2022-08-08T02:51:56.476Z,70.52
2022-08-08T02:54:57.347Z,73.19
2022-08-08T02:58:02.787Z,72.82
2022-08-08T03:01:01.762Z,73.09
2022-08-08T03:05:04.493Z,74.34
2022-08-08T03:07:41.421Z,70.46
2022-08-08T03:10:44.388Z,71.45
2022-08-08T03:16:00.661Z,70.26
2022-08-08T03:16:43.573Z,68.64
2022-08-08T03:19:50.502Z,69.06
2022-08-08T03:22:38.302Z,68.14
2022-08-08T03:25:17.786Z,69.53
2022-08-08T03:27:56.685Z,70.03
2022-08-08T03:30:27.166Z,71.30
2022-08-08T03:33:56.153Z,72.72
2022-08-08T03:36:04.427Z,73.99
2022-08-08T03:38:57.739Z,74.92
2022-08-08T03:42:12.232Z,74.72
2022-08-08T03:44:25.682Z,74.70
2022-08-08T03:46:55.275Z,74.96
2022-08-08T03:49:58.240Z,75.82
2022-08-08T03:52:17.014Z,76.55
2022-08-08T03:55:02.078Z,74.68
2022-08-08T03:58:30.601Z,74.16
2022-08-08T04:00:30.483Z,74.84
2022-08-08T04:03:11.683Z,75.50
2022-08-08T04:05:49.663Z,76.04
2022-08-08T04:08:33.346Z,75.05
2022-08-08T04:11:11.486Z,74.94
2022-08-08T04:14:03.875Z,74.36
2022-08-08T04:16:40.929Z,73.79
2022-08-08T04:19:25.100Z,73.32
2022-08-08T04:22:00.239Z,74.03
2022-08-08T04:24:36.610Z,74.38
2022-08-08T04:27:19.343Z,74.60
2022-08-08T04:30:00.745Z,74.51
2022-08-08T04:32:37.358Z,75.24
2022-08-08T04:35:13.219Z,74.20
2022-08-08T04:37:43.722Z,74.22
2022-08-08T04:40:18.842Z,75.11
2022-08-08T04:42:57.349Z,75.29
2022-08-08T04:45:41.392Z,74.97
2022-08-08T04:48:11.263Z,73.25
2022-08-08T04:50:46.006Z,74.53
2022-08-08T04:54:27.536Z,75.05
2022-08-08T04:56:09.123Z,74.64
2022-08-08T04:58:38.134Z,72.90
2022-08-08T05:01:10.906Z,69.80
2022-08-08T05:04:11.360Z,68.62
2022-08-08T05:06:36.499Z,68.94
2022-08-08T05:09:08.571Z,68.06
2022-08-08T05:11:40.792Z,65.71
2022-08-08T05:14:14.844Z,65.39
2022-08-08T05:17:00.659Z,64.25
2022-08-08T05:20:10.530Z,63.60
2022-08-08T05:22:23.681Z,61.35
2022-08-08T05:24:56.247Z,60.84
2022-08-08T05:27:25.655Z,59.95
2022-08-08T05:29:54.939Z,59.37
2022-08-08T05:32:36.585Z,59.37
2022-08-08T05:35:07.228Z,58.36
2022-08-08T05:37:53.694Z,58.33
2022-08-08T05:40:29.692Z,58.05
2022-08-08T05:43:40.204Z,57.62
2022-08-08T05:46:03.256Z,58.28
2022-08-08T05:48:36.063Z,58.45
2022-08-08T05:51:13.212Z,57.96
2022-08-08T05:54:24.452Z,57.99
2022-08-08T05:56:42.439Z,57.18
2022-08-08T05:59:58.993Z,56.29
2022-08-08T06:02:33.832Z,55.94
2022-08-08T06:05:33.037Z,55.32
2022-08-08T06:08:02.522Z,53.70
2022-08-08T06:10:34.745Z,52.68
2022-08-08T06:13:08.172Z,52.72
2022-08-08T06:15:51.181Z,50.40
2022-08-08T06:18:29.949Z,50.27
2022-08-08T06:21:03.764Z,49.21
2022-08-08T06:23:52.646Z,49.21
2022-08-08T06:26:44.839Z,48.60
2022-08-08T06:29:49.279Z,46.88
2022-08-08T06:32:17.217Z,46.47
2022-08-08T06:35:11.620Z,45.04
2022-08-08T06:37:51.059Z,45.13
2022-08-08T06:40:31.972Z,43.41
2022-08-08T06:43:06.062Z,42.59
2022-08-08T06:45:44.954Z,42.40
2022-08-08T06:48:17.700Z,41.79
2022-08-08T06:50:46.406Z,41.22
2022-08-08T06:53:20.520Z,40.16
2022-08-08T06:56:02.543Z,39.31
2022-08-08T06:58:34.954Z,38.06
2022-08-08T07:01:24.474Z,37.65
2022-08-08T07:04:40.370Z,37.42
2022-08-08T07:06:56.775Z,36.92
2022-08-08T07:09:45.130Z,35.95
2022-08-08T07:12:24.390Z,36.89
2022-08-08T07:15:05.595Z,34.86
2022-08-08T07:17:40.305Z,34.36
2022-08-08T07:20:30.574Z,34.12
2022-08-08T07:23:04.696Z,33.82
2022-08-08T07:25:54.154Z,33.50
2022-08-08T07:28:31.616Z,33.10
2022-08-08T07:31:06.240Z,35.01
2022-08-08T07:33:38.186Z,32.76
2022-08-08T07:36:23.880Z,31.88
2022-08-08T07:38:53.490Z,32.82
2022-08-08T07:41:26.508Z,31.07
2022-08-08T07:44:01.742Z,30.60
2022-08-08T07:46:33.349Z,30.88
2022-08-08T07:49:13.408Z,30.69
2022-08-08T07:51:53.293Z,28.82
2022-08-08T07:54:32.939Z,29.08
2022-08-08T07:57:17.460Z,28.51
2022-08-08T07:59:59.416Z,28.90
2022-08-08T08:02:39.513Z,28.22
2022-08-08T08:05:19.651Z,29.19
2022-08-08T08:07:53.162Z,28.43
2022-08-08T08:10:30.202Z,28.43
2022-08-08T08:13:25.779Z,28.79
2022-08-08T08:16:19.021Z,28.82
2022-08-08T08:18:56.136Z,27.14
2022-08-08T08:21:44.448Z,25.73
2022-08-08T08:24:32.115Z,26.44
2022-08-08T08:27:02.583Z,26.75
2022-08-08T08:29:32.751Z,26.46
2022-08-08T08:32:05.647Z,26.05
2022-08-08T08:34:36.774Z,26.04
2022-08-08T08:37:15.563Z,26.28
2022-08-08T08:40:02.025Z,26.20
2022-08-08T08:42:36.685Z,25.58
2022-08-08T08:45:22.854Z,26.37
2022-08-08T08:47:58.364Z,25.38
2022-08-08T08:50:34.963Z,26.09
2022-08-08T08:53:27.374Z,26.37
2022-08-08T08:56:06.663Z,28.11
2022-08-08T08:58:43.375Z,28.45
2022-08-08T09:01:24.717Z,27.09
2022-08-08T09:04:00.620Z,25.45
2022-08-08T09:06:36.483Z,24.72
2022-08-08T09:09:26.487Z,24.67
2022-08-08T09:12:10.362Z,26.17
2022-08-08T09:14:45.073Z,27.18
2022-08-08T09:17:19.531Z,25.13
2022-08-08T09:21:59.697Z,24.77
2022-08-08T09:22:42.078Z,25.36
2022-08-08T09:25:11.368Z,23.07
2022-08-08T09:27:57.691Z,24.38
2022-08-08T09:30:29.664Z,23.16
2022-08-08T09:33:12.925Z,22.72
2022-08-08T09:35:50.923Z,24.93
2022-08-08T09:38:52.773Z,25.35
2022-08-08T09:42:14.156Z,23.16
2022-08-08T09:44:34.264Z,23.51
2022-08-08T09:47:26.762Z,23.88
2022-08-08T09:50:03.499Z,23.00
2022-08-08T09:52:56.726Z,22.74
2022-08-08T09:55:51.673Z,22.62
2022-08-08T09:58:26.003Z,23.10
2022-08-08T10:01:14.218Z,23.82
2022-08-08T10:03:56.059Z,22.35
2022-08-08T10:06:29.741Z,21.83
2022-08-08T10:09:00.775Z,22.96
2022-08-08T10:12:26.147Z,22.88
2022-08-08T10:14:28.263Z,22.96
2022-08-08T10:17:56.021Z,23.33
2022-08-08T10:20:00.134Z,22.54
2022-08-08T10:22:32.291Z,21.19
2022-08-08T10:25:05.531Z,21.49
2022-08-08T10:27:42.935Z,21.95
2022-08-08T10:30:16.616Z,23.81
2022-08-08T10:33:02.068Z,21.53
2022-08-08T10:36:08.219Z,22.16
2022-08-08T10:38:22.288Z,21.85
2022-08-08T10:40:53.695Z,21.28
2022-08-08T10:43:22.880Z,21.13
2022-08-08T10:45:55.844Z,21.85
2022-08-08T10:48:38.891Z,21.39
2022-08-08T10:51:24.369Z,21.05
2022-08-08T10:53:59.146Z,21.29
2022-08-08T10:56:34.795Z,21.13
2022-08-08T10:59:09.244Z,21.21
2022-08-08T11:01:39.746Z,21.51
2022-08-08T11:04:10.594Z,22.30
2022-08-08T11:06:41.473Z,23.75
2022-08-08T11:09:21.693Z,21.07
2022-08-08T11:12:05.410Z,21.64
2022-08-08T11:14:53.153Z,20.30
2022-08-08T11:18:00.271Z,20.12
2022-08-08T11:20:17.723Z,20.99
2022-08-08T11:22:50.973Z,20.22
2022-08-08T11:25:52.077Z,21.23
2022-08-08T11:28:18.661Z,19.93
2022-08-08T11:30:50.034Z,19.72
2022-08-08T11:33:51.311Z,21.21
2022-08-08T11:36:14.884Z,19.51
2022-08-08T11:38:54.660Z,21.64
2022-08-08T11:41:27.957Z,19.28
2022-08-08T11:44:01.167Z,19.85
2022-08-08T11:46:30.540Z,19.69
2022-08-08T11:49:04.255Z,19.38
2022-08-08T11:51:40.321Z,18.12
2022-08-08T11:54:32.385Z,19.07
2022-08-08T11:57:27.200Z,19.72
2022-08-08T12:00:02.681Z,18.36
2022-08-08T12:02:48.566Z,18.29
2022-08-08T12:05:22.538Z,18.47
2022-08-08T12:07:52.418Z,18.92
2022-08-08T12:10:22.438Z,18.71
2022-08-08T12:13:01.227Z,19.84
2022-08-08T12:15:41.718Z,19.09
2022-08-08T12:18:21.526Z,20.99
2022-08-08T12:20:50.869Z,20.07
2022-08-08T12:23:40.340Z,19.13
2022-08-08T12:26:17.329Z,20.42
2022-08-08T12:28:58.802Z,19.82
2022-08-08T12:31:39.134Z,20.55
2022-08-08T12:34:36.266Z,21.15
2022-08-08T12:37:08.138Z,19.76
2022-08-08T12:39:59.944Z,19.56
2022-08-08T12:42:27.377Z,19.24
2022-08-08T12:45:19.944Z,18.48
2022-08-08T12:48:09.747Z,19.58
2022-08-08T12:50:49.047Z,19.54
2022-08-08T12:53:21.783Z,18.99
2022-08-08T12:56:06.561Z,18.84
2022-08-08T12:58:47.616Z,19.76
2022-08-08T13:01:17.380Z,18.86
2022-08-08T13:03:57.978Z,19.42
2022-08-08T13:06:26.984Z,20.03
2022-08-08T13:08:56.842Z,23.09
2022-08-08T13:11:28.628Z,21.53
2022-08-08T13:14:15.830Z,19.05
2022-08-08T13:16:49.180Z,19.59
2022-08-08T13:19:20.539Z,19.56
2022-08-08T13:21:58.078Z,19.32
2022-08-08T13:24:40.736Z,18.86
2022-08-08T13:27:15.264Z,19.62
2022-08-08T13:29:51.572Z,19.68
2022-08-08T13:32:25.307Z,18.62
2022-08-08T13:34:55.544Z,19.00
2022-08-08T13:37:28.319Z,18.08
2022-08-08T13:40:17.897Z,19.01
2022-08-08T13:42:55.673Z,17.07
2022-08-08T13:45:24.905Z,17.28
2022-08-08T13:48:03.076Z,17.31
2022-08-08T13:50:49.215Z,17.20
2022-08-08T13:53:27.950Z,18.33
2022-08-08T13:56:01.086Z,18.45
2022-08-08T13:58:29.639Z,17.05
2022-08-08T14:00:57.982Z,17.27
2022-08-08T14:03:52.838Z,18.26
2022-08-08T14:06:32.083Z,17.19
2022-08-08T14:09:24.307Z,18.05
2022-08-08T14:11:50.806Z,16.58
2022-08-08T14:14:21.212Z,16.82
2022-08-08T14:16:55.296Z,16.86
2022-08-08T14:19:57.106Z,16.76
2022-08-08T14:22:25.286Z,16.69
2022-08-08T14:24:58.887Z,16.30
2022-08-08T14:27:30.490Z,16.79
2022-08-08T14:30:08.258Z,17.06
2022-08-08T14:32:53.282Z,17.31
2022-08-08T14:35:28.356Z,16.98
2022-08-08T14:38:34.722Z,16.12
2022-08-08T14:40:59.532Z,16.83
2022-08-08T14:44:01.701Z,17.80
2022-08-08T14:46:18.773Z,17.21
2022-08-08T14:49:02.467Z,17.07
2022-08-08T14:51:51.516Z,17.19
2022-08-08T14:54:28.392Z,16.73
2022-08-08T14:56:58.183Z,16.84
2022-08-08T14:59:43.949Z,16.41
2022-08-08T15:02:15.586Z,17.03
2022-08-08T15:04:45.537Z,17.65
2022-08-08T15:07:22.704Z,17.57
2022-08-08T15:09:53.508Z,17.55
2022-08-08T15:12:27.683Z,18.00
2022-08-08T15:14:56.455Z,17.53
2022-08-08T15:17:25.094Z,18.44
2022-08-08T15:19:54.720Z,19.21
2022-08-08T15:22:25.440Z,18.96
2022-08-08T15:24:54.523Z,18.63
2022-08-08T15:28:04.688Z,19.25
2022-08-08T15:30:14.538Z,20.23
2022-08-08T15:32:43.454Z,19.12
2022-08-08T15:35:13.034Z,19.57
2022-08-08T15:37:46.056Z,19.43
2022-08-08T15:40:15.308Z,20.30
2022-08-08T15:42:49.595Z,20.29
2022-08-08T15:45:17.941Z,19.95
2022-08-08T15:48:15.304Z,19.80
2022-08-08T15:50:56.765Z,20.15
2022-08-08T15:53:40.244Z,20.29
2022-08-08T15:56:16.635Z,20.60
2022-08-08T15:58:49.033Z,20.62
2022-08-08T16:01:18.097Z,20.02
2022-08-08T16:03:48.299Z,20.80
2022-08-08T16:06:28.273Z,20.90
2022-08-08T16:08:58.568Z,21.53
2022-08-08T16:13:28.732Z,21.04
2022-08-08T16:14:37.299Z,21.89
2022-08-08T16:17:06.443Z,21.26
2022-08-08T16:19:59.605Z,20.62
2022-08-08T16:22:41.409Z,21.30
2022-08-08T16:25:11.861Z,21.14
2022-08-08T16:27:43.573Z,21.67
2022-08-08T16:30:32.483Z,22.72
2022-08-08T16:33:05.690Z,21.74
2022-08-08T16:35:34.048Z,22.08
2022-08-08T16:38:02.117Z,22.23
2022-08-08T16:40:32.928Z,21.94
2022-08-08T16:43:00.960Z,21.99
2022-08-08T16:46:36.714Z,21.82
2022-08-08T16:48:17.081Z,22.51
2022-08-08T16:50:46.459Z,23.30
2022-08-08T16:55:02.812Z,23.41
2022-08-08T16:56:05.892Z,23.32
2022-08-08T16:58:42.334Z,22.88
2022-08-08T17:01:12.886Z,22.32
2022-08-08T17:04:00.182Z,22.40
2022-08-08T17:06:43.997Z,22.83
2022-08-08T17:09:15.360Z,22.94
2022-08-08T17:11:48.570Z,23.29
2022-08-08T17:14:19.662Z,23.15
2022-08-08T17:16:58.542Z,23.59
2022-08-08T17:19:29.065Z,23.32
2022-08-08T17:22:00.972Z,23.21
2022-08-08T17:24:31.024Z,23.46
2022-08-08T17:27:02.681Z,23.68
2022-08-08T17:29:36.536Z,23.66
2022-08-08T17:32:11.833Z,23.76
2022-08-08T17:35:52.404Z,23.43
2022-08-08T17:37:28.044Z,23.44
2022-08-08T17:40:05.608Z,23.52
2022-08-08T17:42:47.347Z,23.77
2022-08-08T17:45:22.406Z,23.97
2022-08-08T17:47:53.889Z,24.12
2022-08-08T17:50:22.610Z,23.73
2022-08-08T17:52:50.831Z,23.79
2022-08-08T17:56:03.955Z,24.54
2022-08-08T17:58:08.274Z,24.85
2022-08-08T18:00:39.034Z,24.75
2022-08-08T18:03:13.603Z,25.15
2022-08-08T18:05:48.670Z,25.50
2022-08-08T18:08:37.706Z,25.71
2022-08-08T18:11:15.135Z,25.50
2022-08-08T18:13:47.757Z,25.53
2022-08-08T18:16:22.977Z,25.30
2022-08-08T18:18:56.029Z,25.85
2022-08-08T18:21:35.531Z,25.80
2022-08-08T18:24:18.810Z,25.90
2022-08-08T18:26:53.800Z,26.19
2022-08-08T18:29:29.906Z,25.77
2022-08-08T18:32:03.319Z,26.01
2022-08-08T18:34:33.390Z,26.35
2022-08-08T18:37:02.994Z,26.66
2022-08-08T18:39:34.662Z,26.60
2022-08-08T18:42:13.007Z,27.35
2022-08-08T18:44:55.916Z,26.59
2022-08-08T18:47:26.663Z,25.88
2022-08-08T18:49:58.935Z,26.24
2022-08-08T18:52:29.768Z,26.55
2022-08-08T18:55:09.506Z,26.88
2022-08-08T18:57:44.666Z,27.05
2022-08-08T19:00:19.682Z,27.82
2022-08-08T19:02:57.152Z,27.84
2022-08-08T19:05:38.506Z,27.94
2022-08-08T19:08:24.472Z,27.76
2022-08-08T19:10:56.509Z,28.77
2022-08-08T19:13:25.436Z,27.95
2022-08-08T19:16:18.657Z,28.08
2022-08-08T19:18:53.203Z,27.81
2022-08-08T19:21:47.802Z,28.33
2022-08-08T19:24:39.254Z,28.43
2022-08-08T19:27:06.577Z,28.35
2022-08-08T19:29:42.195Z,28.28
2022-08-08T19:32:13.125Z,27.91
2022-08-08T19:34:51.322Z,27.66
2022-08-08T19:37:43.436Z,27.65
2022-08-08T19:40:16.248Z,27.79
2022-08-08T19:42:45.694Z,27.61
2022-08-08T19:45:14.065Z,28.07
2022-08-08T19:48:03.172Z,28.50
2022-08-08T19:50:33.002Z,28.74
2022-08-08T19:53:01.046Z,29.20
2022-08-08T19:55:34.039Z,29.84
2022-08-08T19:58:02.677Z,29.92
2022-08-08T20:00:34.376Z,29.67
2022-08-08T20:03:14.323Z,30.34
2022-08-08T20:06:14.703Z,30.29
2022-08-08T20:08:47.603Z,30.88
2022-08-08T20:11:16.530Z,31.41
2022-08-08T20:14:11.988Z,31.31
2022-08-08T20:16:36.247Z,31.96
2022-08-08T20:19:08.677Z,32.39
2022-08-08T20:21:38.293Z,32.00
2022-08-08T20:24:07.910Z,32.23
2022-08-08T20:26:38.434Z,32.24
2022-08-08T20:29:10.954Z,32.50
2022-08-08T20:32:02.463Z,32.73
2022-08-08T20:34:31.926Z,32.73
2022-08-08T20:37:02.558Z,32.45
2022-08-08T20:39:39.795Z,32.37
2022-08-08T20:42:20.433Z,32.59
2022-08-08T20:44:56.342Z,33.13
2022-08-08T20:47:25.347Z,32.86
2022-08-08T20:49:57.714Z,33.28
2022-08-08T20:52:27.816Z,33.89
2022-08-08T20:54:56.359Z,34.08
2022-08-08T20:57:25.371Z,34.31
2022-08-08T20:59:57.336Z,34.37
2022-08-08T21:02:27.909Z,34.70
2022-08-08T21:05:01.168Z,34.46
2022-08-08T21:08:04.101Z,34.46
2022-08-08T21:10:20.810Z,34.54
2022-08-08T21:12:54.166Z,34.29
2022-08-08T21:16:06.200Z,34.73
2022-08-08T21:18:12.086Z,34.39
2022-08-08T21:20:42.370Z,35.65
2022-08-08T21:23:13.148Z,34.72
2022-08-08T21:25:48.752Z,35.17
2022-08-08T21:28:33.515Z,35.05
2022-08-08T21:31:05.913Z,34.57
2022-08-08T21:33:50.532Z,35.01
2022-08-08T21:36:21.737Z,34.84
2022-08-08T21:38:57.432Z,34.71
2022-08-08T21:41:38.340Z,34.70
2022-08-08T21:44:14.679Z,34.85
2022-08-08T21:48:01.469Z,34.60
2022-08-08T21:49:34.025Z,34.94
2022-08-08T21:54:36.675Z,34.98
2022-08-08T21:55:03.101Z,34.29
2022-08-08T21:57:42.996Z,34.97
2022-08-08T22:00:14.247Z,35.21
2022-08-08T22:02:44.272Z,35.03
2022-08-08T22:05:14.970Z,35.09
2022-08-08T22:07:48.143Z,35.53
2022-08-08T22:10:32.220Z,35.51
2022-08-08T22:13:18.694Z,35.31
2022-08-08T22:15:58.482Z,35.81
2022-08-08T22:18:30.365Z,35.58
2022-08-08T22:20:59.557Z,35.59
2022-08-08T22:23:38.369Z,35.67
2022-08-08T22:26:26.637Z,35.74
2022-08-08T22:29:13.338Z,35.51
2022-08-08T22:31:58.588Z,35.84
2022-08-08T22:34:30.782Z,36.16
2022-08-08T22:36:59.590Z,35.78
2022-08-08T22:39:46.277Z,36.53
2022-08-08T22:42:26.984Z,35.92
2022-08-08T22:44:56.089Z,36.07
2022-08-08T22:47:34.235Z,35.65
2022-08-08T22:50:09.861Z,35.60
2022-08-08T22:53:22.464Z,35.93
2022-08-08T22:55:58.329Z,35.85
2022-08-08T22:58:29.177Z,36.05
2022-08-08T23:01:00.057Z,36.25
2022-08-08T23:03:34.193Z,36.57
2022-08-08T23:06:17.167Z,36.74
2022-08-08T23:08:55.410Z,36.49
2022-08-08T23:11:31.181Z,36.58
2022-08-08T23:14:17.809Z,36.45
2022-08-08T23:16:54.768Z,36.82
2022-08-08T23:19:26.245Z,37.10
2022-08-08T23:21:54.355Z,36.92
2022-08-08T23:24:23.680Z,36.99
2022-08-08T23:26:56.013Z,37.11
2022-08-08T23:29:27.014Z,37.44
2022-08-08T23:31:57.976Z,37.59
2022-08-08T23:34:26.239Z,37.75
2022-08-08T23:36:58.206Z,37.83
2022-08-08T23:39:32.380Z,37.48
2022-08-08T23:42:11.671Z,37.92
2022-08-08T23:44:39.606Z,37.55
2022-08-08T23:49:00.409Z,37.37
2022-08-08T23:50:01.136Z,37.38
2022-08-08T23:52:32.150Z,37.39
2022-08-08T23:55:14.697Z,37.54
2022-08-08T23:57:52.820Z,37.38
